createdAt,value
2023-02-13T00:01:40.479Z,341.23
2023-02-13T00:04:07.505Z,335.03
2023-02-13T00:06:34.480Z,331.67
2023-02-13T00:09:02.720Z,333.73
2023-02-13T00:11:29.698Z,328.17
2023-02-13T00:13:56.782Z,332.47
2023-02-13T00:16:23.872Z,335.23
2023-02-13T00:18:50.868Z,338.33
2023-02-13T00:21:17.923Z,337.73
2023-02-13T00:23:45.020Z,337.37
2023-02-13T00:26:15.478Z,339.80
2023-02-13T00:28:43.553Z,332.10
2023-02-13T00:31:22.078Z,345.77
2023-02-13T00:33:49.288Z,335.47
2023-02-13T00:36:20.839Z,335.57
2023-02-13T00:38:49.226Z,334.90
2023-02-13T00:41:19.051Z,326.97
2023-02-13T00:43:48.117Z,331.73
2023-02-13T00:46:17.015Z,331.43
2023-02-13T00:48:45.000Z,329.27
2023-02-13T00:51:12.887Z,334.07
2023-02-13T00:53:40.432Z,340.80
2023-02-13T00:56:07.987Z,338.13
2023-02-13T00:58:35.020Z,324.40
2023-02-13T01:01:02.190Z,346.93
2023-02-13T01:03:29.630Z,329.77
2023-02-13T01:05:58.340Z,330.87
2023-02-13T01:08:28.297Z,328.60
2023-02-13T01:10:56.460Z,341.40
2023-02-13T01:13:23.858Z,325.57
2023-02-13T01:15:51.618Z,328.53
2023-02-13T01:18:20.634Z,329.80
2023-02-13T01:21:00.064Z,329.20
2023-02-13T01:23:31.713Z,338.17
2023-02-13T01:25:58.695Z,333.87
2023-02-13T01:28:25.840Z,325.27
2023-02-13T01:30:57.922Z,330.60
2023-02-13T01:33:28.194Z,325.67
2023-02-13T01:35:55.284Z,329.80
2023-02-13T01:38:22.362Z,328.30
2023-02-13T01:40:54.507Z,325.03
2023-02-13T01:43:23.632Z,326.50
2023-02-13T01:45:55.751Z,324.67
2023-02-13T01:48:27.756Z,327.80
2023-02-13T01:51:09.012Z,346.10
2023-02-13T01:53:41.664Z,332.63
2023-02-13T01:56:45.411Z,330.10
2023-02-13T01:59:18.456Z,326.17
2023-02-13T02:01:45.940Z,327.50
2023-02-13T02:04:20.020Z,326.27
2023-02-13T02:06:52.984Z,321.90
2023-02-13T02:09:26.654Z,328.70
2023-02-13T02:12:02.848Z,335.13
2023-02-13T02:14:29.955Z,330.33
2023-02-13T02:16:57.772Z,330.93
2023-02-13T02:19:33.852Z,325.70
2023-02-13T02:22:31.099Z,333.43
2023-02-13T02:25:22.129Z,322.77
2023-02-13T02:28:13.832Z,331.27
2023-02-13T02:31:04.542Z,322.93
2023-02-13T02:34:01.379Z,324.60
2023-02-13T02:36:49.483Z,331.13
2023-02-13T02:39:31.403Z,323.87
2023-02-13T02:42:53.257Z,340.17
2023-02-13T02:45:38.485Z,320.10
2023-02-13T02:48:45.457Z,317.20
2023-02-13T02:51:49.302Z,337.17
2023-02-13T02:54:48.193Z,321.77
2023-02-13T02:57:23.339Z,327.27
2023-02-13T03:00:11.792Z,323.83
2023-02-13T03:02:57.284Z,321.33
2023-02-13T03:05:53.959Z,322.50
2023-02-13T03:08:41.212Z,319.13
2023-02-13T03:11:27.913Z,344.30
2023-02-13T03:13:55.782Z,326.07
2023-02-13T03:16:44.191Z,316.03
2023-02-13T03:20:06.375Z,322.37
2023-02-13T03:23:08.406Z,324.13
2023-02-13T03:26:18.602Z,317.23
2023-02-13T03:29:33.286Z,316.17
2023-02-13T03:32:27.961Z,323.60
2023-02-13T03:35:39.017Z,315.80
2023-02-13T03:38:17.263Z,335.63
2023-02-13T03:41:10.171Z,316.70
2023-02-13T03:43:47.750Z,318.50
2023-02-13T03:46:17.503Z,314.93
2023-02-13T03:49:04.866Z,317.07
2023-02-13T03:52:08.459Z,325.40
2023-02-13T03:55:09.946Z,317.50
2023-02-13T03:57:58.044Z,317.73
2023-02-13T04:00:29.462Z,320.90
2023-02-13T04:03:29.256Z,313.47
2023-02-13T04:06:09.238Z,320.80
2023-02-13T04:08:36.353Z,333.30
2023-02-13T04:11:15.982Z,327.23
2023-02-13T04:13:55.526Z,315.23
2023-02-13T04:16:34.835Z,315.63
2023-02-13T04:19:03.182Z,319.70
2023-02-13T04:21:38.382Z,307.63
2023-02-13T04:24:05.786Z,315.40
2023-02-13T04:26:40.708Z,313.47
2023-02-13T04:29:08.489Z,315.53
2023-02-13T04:31:35.740Z,315.73
2023-02-13T04:34:02.866Z,324.17
2023-02-13T04:36:30.183Z,324.90
2023-02-13T04:38:57.197Z,312.80
2023-02-13T04:41:24.283Z,310.33
2023-02-13T04:43:52.528Z,315.00
2023-02-13T04:46:19.787Z,315.13
2023-02-13T04:48:46.798Z,316.03
2023-02-13T04:51:14.611Z,316.90
2023-02-13T04:53:41.672Z,318.47
2023-02-13T04:56:08.730Z,327.30
2023-02-13T04:58:35.696Z,318.03
2023-02-13T05:01:03.155Z,322.87
2023-02-13T05:03:30.175Z,320.40
2023-02-13T05:05:57.273Z,327.87
2023-02-13T05:08:24.232Z,320.97
2023-02-13T05:10:51.257Z,324.43
2023-02-13T05:13:21.630Z,325.53
2023-02-13T05:15:49.437Z,317.73
2023-02-13T05:18:16.464Z,382.20
2023-02-13T05:20:43.385Z,323.17
2023-02-13T05:23:23.879Z,321.40
2023-02-13T05:25:51.037Z,312.93
2023-02-13T05:28:36.363Z,318.57
2023-02-13T05:31:03.668Z,335.63
2023-02-13T05:33:34.518Z,314.77
2023-02-13T05:36:01.602Z,316.77
2023-02-13T05:38:28.578Z,325.03
2023-02-13T05:40:56.049Z,346.33
2023-02-13T05:43:23.290Z,313.57
2023-02-13T05:46:04.908Z,317.47
2023-02-13T05:48:32.775Z,316.27
2023-02-13T05:50:59.857Z,333.17
2023-02-13T05:53:27.419Z,344.87
2023-02-13T05:55:54.390Z,315.43
2023-02-13T05:58:21.984Z,315.27
2023-02-13T06:00:49.026Z,307.20
2023-02-13T06:03:15.998Z,344.40
2023-02-13T06:05:42.932Z,313.27
2023-02-13T06:08:09.919Z,322.60
2023-02-13T06:10:36.846Z,329.90
2023-02-13T06:13:03.870Z,311.83
2023-02-13T06:15:31.440Z,321.63
2023-02-13T06:17:58.395Z,329.50
2023-02-13T06:20:25.393Z,315.43
2023-02-13T06:22:53.519Z,304.17
2023-02-13T06:25:20.949Z,322.00
2023-02-13T06:27:49.246Z,308.27
2023-02-13T06:30:17.641Z,314.43
2023-02-13T06:32:47.579Z,307.83
2023-02-13T06:35:15.321Z,315.40
2023-02-13T06:37:45.898Z,314.53
2023-02-13T06:40:14.993Z,313.43
2023-02-13T06:42:45.720Z,306.80
2023-02-13T06:45:13.722Z,315.80
2023-02-13T06:47:48.550Z,312.77
2023-02-13T06:50:16.921Z,319.70
2023-02-13T06:52:51.814Z,305.83
2023-02-13T06:55:19.225Z,321.73
2023-02-13T06:57:46.808Z,304.93
2023-02-13T07:00:17.030Z,316.27
2023-02-13T07:02:46.395Z,307.87
2023-02-13T07:05:14.218Z,307.53
2023-02-13T07:07:42.736Z,318.80
2023-02-13T07:10:13.917Z,303.17
2023-02-13T07:12:41.164Z,306.20
2023-02-13T07:15:08.973Z,304.50
2023-02-13T07:17:36.453Z,308.13
2023-02-13T07:20:05.126Z,307.93
2023-02-13T07:22:35.501Z,302.20
2023-02-13T07:25:02.534Z,302.63
2023-02-13T07:27:29.652Z,307.93
2023-02-13T07:29:57.761Z,307.50
2023-02-13T07:32:25.813Z,301.70
2023-02-13T07:35:01.682Z,311.03
2023-02-13T07:37:31.693Z,310.23
2023-02-13T07:39:58.716Z,305.10
2023-02-13T07:42:25.753Z,312.40
2023-02-13T07:44:52.713Z,311.97
2023-02-13T07:47:20.325Z,314.63
2023-02-13T07:49:47.549Z,314.50
2023-02-13T07:52:14.686Z,309.13
2023-02-13T07:54:47.832Z,301.60
2023-02-13T07:57:16.350Z,319.47
2023-02-13T07:59:43.847Z,319.80
2023-02-13T08:02:15.913Z,305.40
2023-02-13T08:04:49.306Z,314.97
2023-02-13T08:07:18.449Z,320.33
2023-02-13T08:10:04.761Z,299.70
2023-02-13T08:12:35.410Z,303.37
2023-02-13T08:15:03.072Z,305.93
2023-02-13T08:17:30.048Z,300.90
2023-02-13T08:19:57.420Z,300.63
2023-02-13T08:22:24.505Z,320.97
2023-02-13T08:24:51.500Z,296.90
2023-02-13T08:27:18.580Z,302.03
2023-02-13T08:29:45.632Z,308.07
2023-02-13T08:32:12.693Z,298.33
2023-02-13T08:34:39.853Z,315.63
2023-02-13T08:37:06.875Z,316.93
2023-02-13T08:39:34.108Z,305.73
2023-02-13T08:42:01.213Z,307.20
2023-02-13T08:44:28.314Z,317.10
2023-02-13T08:46:56.056Z,301.70
2023-02-13T08:49:23.625Z,302.47
2023-02-13T08:51:51.178Z,304.47
2023-02-13T08:54:18.260Z,315.77
2023-02-13T08:56:45.700Z,306.03
2023-02-13T08:59:12.934Z,304.40
2023-02-13T09:01:40.495Z,313.07
2023-02-13T09:04:07.556Z,309.40
2023-02-13T09:06:34.499Z,308.33
2023-02-13T09:09:01.646Z,308.07
2023-02-13T09:11:28.596Z,313.77
2023-02-13T09:13:55.967Z,319.37
2023-02-13T09:16:23.651Z,324.60
2023-02-13T09:18:51.699Z,321.77
2023-02-13T09:21:21.159Z,333.07
2023-02-13T09:23:48.288Z,332.43
2023-02-13T09:26:16.475Z,319.93
2023-02-13T09:28:44.541Z,319.40
2023-02-13T09:31:17.566Z,319.10
2023-02-13T09:33:46.552Z,327.47
2023-02-13T09:36:19.369Z,320.27
2023-02-13T09:38:55.206Z,324.83
2023-02-13T09:41:36.916Z,336.00
2023-02-13T09:44:35.711Z,321.73
2023-02-13T09:47:32.985Z,329.97
2023-02-13T09:50:28.181Z,333.10
2023-02-13T09:52:57.988Z,335.30
2023-02-13T09:55:32.722Z,336.60
2023-02-13T09:58:31.273Z,325.27
2023-02-13T10:01:02.589Z,340.80
2023-02-13T10:04:11.227Z,346.63
2023-02-13T10:06:50.950Z,335.17
2023-02-13T10:09:35.959Z,333.80
2023-02-13T10:12:28.068Z,333.03
2023-02-13T10:15:19.248Z,334.53
2023-02-13T10:17:58.322Z,348.33
2023-02-13T10:21:00.879Z,349.00
2023-02-13T10:23:37.170Z,351.77
2023-02-13T10:26:22.147Z,340.17
2023-02-13T10:29:24.788Z,327.73
2023-02-13T10:31:56.100Z,331.30
2023-02-13T10:34:27.556Z,338.27
2023-02-13T10:36:55.353Z,341.43
2023-02-13T10:39:29.541Z,354.10
2023-02-13T10:42:24.103Z,344.57
2023-02-13T10:45:10.176Z,343.57
2023-02-13T10:47:43.245Z,351.13
2023-02-13T10:50:33.282Z,346.87
2023-02-13T10:53:30.785Z,346.80
2023-02-13T10:56:34.856Z,347.93
2023-02-13T10:59:45.161Z,346.40
2023-02-13T11:02:29.128Z,356.40
2023-02-13T11:05:03.319Z,343.40
2023-02-13T11:07:31.892Z,348.20
2023-02-13T11:10:06.202Z,342.33
2023-02-13T11:12:35.017Z,361.93
2023-02-13T11:15:06.748Z,356.17
2023-02-13T11:17:42.367Z,366.70
2023-02-13T11:20:30.526Z,371.87
2023-02-13T11:23:29.758Z,363.40
2023-02-13T11:26:00.905Z,358.80
2023-02-13T11:28:36.298Z,356.10
2023-02-13T11:31:26.315Z,374.40
2023-02-13T11:33:54.867Z,357.70
2023-02-13T11:36:33.751Z,371.27
2023-02-13T11:39:21.092Z,347.10
2023-02-13T11:41:52.572Z,368.47
2023-02-13T11:44:26.672Z,368.13
2023-02-13T11:46:57.743Z,360.55
2023-02-13T11:49:33.888Z,375.27
2023-02-13T11:52:26.901Z,358.43
2023-02-13T11:55:01.547Z,366.85
2023-02-13T11:57:37.387Z,364.75
2023-02-13T12:00:32.443Z,357.25
2023-02-13T12:02:59.745Z,354.73
2023-02-13T12:05:28.740Z,369.70
2023-02-13T12:08:02.135Z,368.05
2023-02-13T12:10:32.974Z,369.33
2023-02-13T12:13:19.124Z,349.80
2023-02-13T12:15:52.384Z,358.67
2023-02-13T12:18:45.277Z,355.05
2023-02-13T12:22:18.655Z,369.58
2023-02-13T12:25:56.835Z,367.70
2023-02-13T12:28:47.843Z,379.05
2023-02-13T12:31:52.972Z,371.25
2023-02-13T12:35:04.599Z,386.95
2023-02-13T12:37:56.997Z,383.52
2023-02-13T12:40:34.288Z,377.50
2023-02-13T12:43:36.768Z,390.02
2023-02-13T12:46:33.921Z,384.20
2023-02-13T12:49:34.425Z,403.35
2023-02-13T12:52:31.422Z,403.52
2023-02-13T12:55:19.670Z,413.23
2023-02-13T12:58:17.481Z,421.23
2023-02-13T13:00:59.772Z,425.95
2023-02-13T13:03:45.217Z,417.42
2023-02-13T13:06:30.223Z,417.33
2023-02-13T13:09:31.220Z,423.73
2023-02-13T13:12:21.620Z,423.27
2023-02-13T13:14:55.156Z,486.85
2023-02-13T13:18:01.277Z,424.20
2023-02-13T13:21:11.892Z,432.38
2023-02-13T13:24:00.456Z,463.73
2023-02-13T13:26:40.775Z,461.88
2023-02-13T13:29:22.822Z,486.17
2023-02-13T13:32:07.562Z,496.70
2023-02-13T13:34:39.266Z,516.28
2023-02-13T13:38:03.580Z,526.55
2023-02-13T13:40:30.502Z,521.20
2023-02-13T13:43:27.576Z,539.67
2023-02-13T13:46:22.401Z,553.63
2023-02-13T13:49:10.434Z,567.42
2023-02-13T13:51:37.881Z,581.10
2023-02-13T13:54:07.844Z,598.85
2023-02-13T13:56:53.455Z,607.53
2023-02-13T13:59:51.782Z,590.85
2023-02-13T14:02:18.838Z,604.80
2023-02-13T14:05:13.537Z,614.95
2023-02-13T14:07:41.973Z,607.05
2023-02-13T14:10:21.352Z,612.85
2023-02-13T14:13:09.968Z,624.95
2023-02-13T14:15:40.000Z,620.00
2023-02-13T14:18:22.321Z,634.75
2023-02-13T14:20:52.449Z,680.38
2023-02-13T14:23:45.644Z,651.53
2023-02-13T14:26:15.593Z,661.08
2023-02-13T14:28:50.053Z,665.92
2023-02-13T14:31:34.414Z,663.55
2023-02-13T14:34:14.475Z,665.00
2023-02-13T14:36:46.721Z,683.35
2023-02-13T14:39:16.625Z,671.67
2023-02-13T14:41:55.103Z,687.67
2023-02-13T14:44:35.989Z,694.40
2023-02-13T14:47:16.981Z,695.55
2023-02-13T14:49:45.392Z,701.83
2023-02-13T14:52:30.218Z,706.88
2023-02-13T14:55:07.643Z,712.25
2023-02-13T14:57:54.013Z,705.10
2023-02-13T15:00:29.888Z,703.53
2023-02-13T15:03:04.243Z,713.58
2023-02-13T15:05:36.090Z,710.80
2023-02-13T15:08:15.564Z,712.88
2023-02-13T15:10:49.693Z,725.17
2023-02-13T15:13:21.614Z,715.15
2023-02-13T15:16:15.231Z,721.65
2023-02-13T15:18:49.979Z,720.78
2023-02-13T15:21:21.461Z,720.38
2023-02-13T15:23:56.902Z,737.85
2023-02-13T15:26:28.025Z,735.40
2023-02-13T15:29:05.804Z,728.20
2023-02-13T15:31:35.570Z,736.83
2023-02-13T15:34:02.739Z,734.13
2023-02-13T15:36:50.002Z,741.70
2023-02-13T15:39:23.227Z,734.10
2023-02-13T15:41:54.715Z,731.70
2023-02-13T15:44:30.084Z,737.92
2023-02-13T15:47:14.488Z,734.75
2023-02-13T15:49:47.360Z,733.45
2023-02-13T15:52:37.336Z,728.28
2023-02-13T15:55:04.894Z,738.80
2023-02-13T15:57:32.222Z,736.72
2023-02-13T16:00:01.317Z,739.20
2023-02-13T16:02:47.829Z,735.83
2023-02-13T16:05:20.044Z,731.72
2023-02-13T16:07:59.496Z,718.53
2023-02-13T16:10:32.038Z,707.92
2023-02-13T16:13:06.197Z,711.47
2023-02-13T16:15:36.526Z,694.78
2023-02-13T16:18:06.301Z,680.75
2023-02-13T16:20:34.734Z,675.58
2023-02-13T16:23:10.423Z,668.38
2023-02-13T16:25:41.928Z,674.17
2023-02-13T16:28:23.700Z,638.67
2023-02-13T16:31:03.012Z,627.80
2023-02-13T16:33:32.082Z,622.95
2023-02-13T16:36:09.465Z,617.05
2023-02-13T16:38:50.002Z,598.38
2023-02-13T16:41:23.104Z,583.08
2023-02-13T16:44:03.695Z,574.22
2023-02-13T16:46:45.332Z,550.70
2023-02-13T16:49:40.846Z,544.85
2023-02-13T16:52:19.009Z,515.22
2023-02-13T16:55:00.956Z,504.98
2023-02-13T16:57:35.194Z,495.42
2023-02-13T17:00:24.438Z,474.08
2023-02-13T17:02:51.696Z,455.65
2023-02-13T17:05:25.959Z,452.15
2023-02-13T17:07:58.011Z,433.98
2023-02-13T17:10:33.987Z,435.98
2023-02-13T17:13:12.111Z,423.67
2023-02-13T17:15:44.330Z,423.25
2023-02-13T17:18:11.395Z,426.77
2023-02-13T17:20:43.111Z,420.05
2023-02-13T17:23:22.581Z,418.88
2023-02-13T17:25:52.737Z,410.42
2023-02-13T17:28:25.051Z,424.55
2023-02-13T17:30:56.399Z,406.48
2023-02-13T17:33:29.158Z,414.77
2023-02-13T17:35:56.282Z,418.00
2023-02-13T17:38:23.752Z,402.90
2023-02-13T17:40:51.908Z,411.98
2023-02-13T17:43:20.715Z,389.25
2023-02-13T17:45:49.803Z,404.65
2023-02-13T17:48:17.546Z,389.35
2023-02-13T17:50:45.287Z,399.50
2023-02-13T17:53:32.155Z,390.33
2023-02-13T17:55:59.740Z,396.00
2023-02-13T17:58:26.955Z,383.40
2023-02-13T18:00:54.058Z,397.08
2023-02-13T18:03:22.511Z,379.23
2023-02-13T18:05:50.227Z,375.55
2023-02-13T18:08:17.875Z,387.88
2023-02-13T18:10:44.932Z,394.63
2023-02-13T18:13:12.948Z,379.35
2023-02-13T18:15:44.187Z,379.60
2023-02-13T18:18:12.947Z,390.33
2023-02-13T18:20:39.984Z,395.73
2023-02-13T18:23:07.345Z,398.67
2023-02-13T18:25:35.308Z,377.63
2023-02-13T18:28:02.469Z,381.48
2023-02-13T18:30:29.659Z,368.23
2023-02-13T18:32:59.116Z,391.08
2023-02-13T18:35:26.910Z,383.90
2023-02-13T18:37:54.318Z,385.50
2023-02-13T18:40:21.625Z,389.00
2023-02-13T18:42:51.064Z,385.77
2023-02-13T18:45:18.431Z,357.27
2023-02-13T18:48:03.178Z,368.48
2023-02-13T18:50:30.660Z,359.35
2023-02-13T18:52:57.633Z,369.63
2023-02-13T18:55:24.667Z,377.55
2023-02-13T18:57:54.502Z,398.45
2023-02-13T19:00:23.345Z,384.15
2023-02-13T19:02:50.363Z,390.25
2023-02-13T19:05:17.629Z,361.35
2023-02-13T19:07:44.709Z,355.15
2023-02-13T19:10:11.975Z,357.48
2023-02-13T19:12:39.020Z,360.53
2023-02-13T19:15:06.436Z,367.33
2023-02-13T19:17:35.598Z,355.65
2023-02-13T19:20:03.097Z,364.27
2023-02-13T19:22:30.156Z,359.27
2023-02-13T19:24:57.210Z,352.05
2023-02-13T19:27:24.363Z,354.42
2023-02-13T19:29:51.526Z,360.77
2023-02-13T19:32:18.635Z,371.10
2023-02-13T19:34:46.969Z,348.17
2023-02-13T19:37:13.917Z,356.73
2023-02-13T19:39:43.359Z,361.73
2023-02-13T19:42:10.531Z,340.73
2023-02-13T19:44:37.540Z,345.95
2023-02-13T19:47:04.786Z,338.60
2023-02-13T19:49:31.718Z,344.20
2023-02-13T19:52:01.747Z,360.20
2023-02-13T19:54:29.098Z,338.57
2023-02-13T19:57:00.488Z,342.57
2023-02-13T19:59:27.958Z,335.33
2023-02-13T20:01:55.360Z,334.27
2023-02-13T20:04:23.202Z,330.63
2023-02-13T20:06:51.200Z,341.73
2023-02-13T20:09:18.444Z,338.30
2023-02-13T20:11:45.698Z,340.87
2023-02-13T20:14:15.314Z,338.40
2023-02-13T20:16:45.657Z,337.80
2023-02-13T20:24:30.853Z,367.17
2023-02-13T20:26:59.228Z,351.17
2023-02-13T20:29:26.436Z,347.40
2023-02-13T20:31:54.125Z,340.53
2023-02-13T20:34:21.412Z,342.47
2023-02-13T20:36:48.479Z,347.80
2023-02-13T20:39:15.503Z,343.70
2023-02-13T20:41:48.593Z,345.57
2023-02-13T20:44:17.345Z,343.27
2023-02-13T20:46:44.351Z,348.40
2023-02-13T20:49:12.850Z,353.03
2023-02-13T20:51:39.952Z,349.03
2023-02-13T20:54:07.480Z,364.23
2023-02-13T20:56:36.146Z,345.83
2023-02-13T20:59:05.385Z,346.47
2023-02-13T21:01:40.384Z,356.30
2023-02-13T21:04:13.811Z,347.47
2023-02-13T21:06:42.237Z,349.80
2023-02-13T21:09:10.121Z,359.13
2023-02-13T21:11:39.829Z,334.60
2023-02-13T21:14:07.182Z,359.27
2023-02-13T21:16:38.916Z,352.87
2023-02-13T21:19:13.710Z,359.60
2023-02-13T21:21:44.255Z,334.47
2023-02-13T21:24:18.472Z,371.13
2023-02-13T21:26:46.081Z,339.03
2023-02-13T21:29:13.418Z,343.83
2023-02-13T21:31:51.237Z,350.10
2023-02-13T21:34:18.519Z,349.73
2023-02-13T21:36:45.935Z,337.67
2023-02-13T21:39:13.786Z,341.87
2023-02-13T21:41:44.057Z,340.40
2023-02-13T21:44:15.873Z,347.20
2023-02-13T21:46:44.604Z,340.10
2023-02-13T21:49:15.252Z,349.27
2023-02-13T21:51:42.608Z,346.93
2023-02-13T21:54:10.204Z,343.83
2023-02-13T21:56:40.757Z,343.63
2023-02-13T21:59:08.391Z,328.90
2023-02-13T22:01:37.994Z,325.20
2023-02-13T22:04:09.179Z,326.50
2023-02-13T22:06:39.381Z,330.17
2023-02-13T22:09:09.060Z,335.43
2023-02-13T22:11:36.915Z,332.20
2023-02-13T22:14:07.037Z,340.93
2023-02-13T22:16:38.895Z,338.57
2023-02-13T22:19:08.680Z,326.83
2023-02-13T22:21:36.822Z,331.07
2023-02-13T22:24:04.770Z,348.80
2023-02-13T22:26:38.391Z,340.07
2023-02-13T22:29:12.056Z,330.27
2023-02-13T22:31:39.701Z,328.50
2023-02-13T22:34:07.237Z,328.10
2023-02-13T22:36:40.330Z,331.40
2023-02-13T22:39:10.266Z,339.57
2023-02-13T22:41:37.979Z,351.10
2023-02-13T22:44:05.259Z,327.53
2023-02-13T22:46:33.960Z,363.23
2023-02-13T22:49:01.649Z,328.23
2023-02-13T22:51:36.062Z,366.40
2023-02-13T22:54:04.317Z,343.73
2023-02-13T22:56:32.520Z,359.33
2023-02-13T22:59:00.303Z,341.50
2023-02-13T23:01:28.942Z,346.97
2023-02-13T23:03:56.988Z,334.40
2023-02-13T23:06:24.591Z,335.90
2023-02-13T23:08:54.551Z,326.87
2023-02-13T23:11:44.668Z,348.93
2023-02-13T23:14:12.645Z,340.27
2023-02-13T23:17:00.410Z,318.47
2023-02-13T23:19:29.783Z,334.00
2023-02-13T23:21:57.058Z,331.03
2023-02-13T23:24:24.121Z,344.23
2023-02-13T23:26:54.567Z,335.97
2023-02-13T23:29:21.674Z,342.17
2023-02-13T23:31:48.788Z,328.57
2023-02-13T23:34:15.881Z,340.23
2023-02-13T23:36:42.880Z,332.43
2023-02-13T23:39:10.081Z,340.10
2023-02-13T23:41:37.077Z,331.00
2023-02-13T23:44:04.173Z,339.90
2023-02-13T23:46:31.206Z,338.27
2023-02-13T23:48:58.234Z,340.30
2023-02-13T23:51:25.738Z,340.27
2023-02-13T23:53:56.260Z,333.30
2023-02-13T23:56:25.306Z,337.10
2023-02-13T23:58:53.086Z,334.60
